Wednesday, November 22, 2017, 4:06 AM EST
Back to Local

KCON, Concord, Concord Municipal Airport

Location: Concord, NH, United States Lat: 43.195
Local Time: 4:06 AM EST ( 9:06 GMT) Lon: -71.501
Time Zone: US/Eastern Elev: 344 ft

Show me the last for .
Show Coded

Time T Td Feel RH Dir Speed Gust Alt SLP Vis Weather Sky Remarks
2017-11-22 03:51 29 26 - 88 - Calm - 29.97 29.98 10 CLR None
2017-11-22 02:51 31 27 - 85 - Calm - 29.98 29.98 10 CLR None
2017-11-22 01:51 31 27 - 85 - Calm - 29.97 29.98 10 CLR None
2017-11-22 00:51 33 30 - 88 - Calm - 29.97 29.98 10 CLR 6-hr Min Temp (1am): 32.0°F
6-hr Max Temp (1am): 48.9°F
2017-11-21 23:51 37 32 - 81 - Calm - 29.99 29.99 10 CLR 24-hr Min Temp (12am): 25.0°F
24-hr Max Temp (12am): 59.0°F
2017-11-21 22:51 40 33 - 76 - Calm - 29.98 29.98 10 CLR None
2017-11-21 21:51 45 34 43 65 140° 5 - 29.97 29.98 10 CLR None
2017-11-21 20:51 45 34 41 65 160° 7 - 29.98 29.99 10 CLR None
2017-11-21 19:51 46 33 42 60 170° 8 - 29.97 29.98 10 CLR None
2017-11-21 18:51 49 31 45 49 160° 9 - 29.95 29.96 10 CLR 6-hr Min Temp (7pm): 48.0°F
6-hr Max Temp (7pm): 59.0°F
2017-11-21 17:51 50 29 46 43 180° 9 - 29.94 29.95 10 CLR None
2017-11-21 16:51 53 26 - 34 200° 14 - 29.93 29.94 10 CLR None
2017-11-21 15:51 56 25 - 30 210° 13 23 29.92 29.93 10 CLR None
2017-11-21 14:51 58 25 - 27 200° 18 26 29.91 29.92 10 CLR Peak wind: 29 mph (26 kts) from 180° at 00 min
2017-11-21 13:51 58 25 - 27 200° 16 23 29.92 29.93 10 CLR None
2017-11-21 12:51 53 28 - 37 180° 3 - 29.94 29.95 10 CLR 6-hr Min Temp (1pm): 26.1°F
6-hr Max Temp (1pm): 53.1°F
2017-11-21 11:51 46 27 42 47 170° 8 - 29.98 29.98 10 CLR None
2017-11-21 10:51 40 27 36 59 150° 6 - 30.02 30.03 10 CLR None
2017-11-21 09:51 38 28 31 67 160° 9 - 30.05 30.06 10 CLR None
2017-11-21 08:51 34 28 28 78 160° 7 - 30.07 30.08 10 CLR None
2017-11-21 07:51 29 26 24 88 130° 5 - 30.07 30.08 10 CLR None
2017-11-21 06:51 26 22 - 84 - Calm - 30.06 30.08 10 CLR 6-hr Min Temp (7am): 25.0°F
6-hr Max Temp (7am): 36.0°F
2017-11-21 05:51 27 23 - 84 - Calm - 30.06 30.07 10 CLR None
2017-11-21 04:51 26 23 - 87 - Calm - 30.04 30.05 10 CLR None

Support USWX by starting your Amazon purchase here.